Pudino, Russia
Current Conditions -  °F | °C
As of 8:30 PM on Sunday 23 Nov 2014 (Local Time) from UNNT Reporting Station
Blowing Snow Blowing Snow  
Wind Chill: 16°   Ceiling: 2600
Heat Index: 28°   Visibility: 1.8mi
Dew Point: 25°   Wind: 18mph
Humidity: 86%   Direction: 220°SW
Pressure: 29.53"   Gusts: NA
Location:  57.57°N, 79.44°E
Report Text: UNNT 231330Z 22008MPS 2900 -SHSN DRSN SCT010 BKN026CB OVC100M02/M04 Q1000 25490140 16390140 NOSIG RMK QFE740/0987
Loading
Personal Weather Stations






























Interactive Weather Map New forecast layout! Learn more

10-Day Weather Forecast

Advertisements
Track Severe Weather on mobile